createdAt,value
2018-10-12T00:00:57.131Z,24.07
2018-10-12T00:03:32.655Z,28.98
2018-10-12T00:06:08.291Z,25.60
2018-10-12T00:08:43.655Z,24.40
2018-10-12T00:11:19.072Z,25.92
2018-10-12T00:13:54.424Z,24.52
2018-10-12T00:16:29.704Z,25.02
2018-10-12T00:19:05.073Z,24.82
2018-10-12T00:21:40.764Z,25.80
2018-10-12T00:24:16.315Z,25.72
2018-10-12T00:26:51.864Z,26.65
2018-10-12T00:29:27.551Z,28.27
2018-10-12T00:32:02.951Z,25.88
2018-10-12T00:34:38.491Z,28.05
2018-10-12T00:37:14.004Z,29.20
2018-10-12T00:39:49.604Z,23.35
2018-10-12T00:42:25.121Z,36.03
2018-10-12T00:45:00.664Z,23.47
2018-10-12T00:47:36.301Z,24.55
2018-10-12T00:50:11.662Z,25.72
2018-10-12T00:52:47.124Z,23.52
2018-10-12T00:55:23.355Z,28.92
2018-10-12T00:57:58.945Z,24.67
2018-10-12T01:00:34.431Z,24.70
2018-10-12T01:03:10.114Z,28.12
2018-10-12T01:05:45.424Z,26.23
2018-10-12T01:08:21.124Z,23.35
2018-10-12T01:10:56.765Z,24.35
2018-10-12T01:13:32.166Z,25.10
2018-10-12T01:16:07.605Z,24.90
2018-10-12T01:18:43.031Z,27.30
2018-10-12T01:21:18.623Z,25.48
2018-10-12T01:23:54.370Z,27.32
2018-10-12T01:26:29.844Z,26.10
2018-10-12T01:29:05.264Z,24.30
2018-10-12T01:31:40.614Z,25.02
2018-10-12T01:34:15.841Z,25.68
2018-10-12T01:36:51.172Z,28.23
2018-10-12T01:39:26.617Z,26.75
2018-10-12T01:42:01.966Z,26.42
2018-10-12T01:44:37.622Z,29.25
2018-10-12T01:47:13.274Z,27.65
2018-10-12T01:49:48.813Z,28.10
2018-10-12T01:52:24.154Z,27.42
2018-10-12T01:54:59.584Z,27.07
2018-10-12T01:57:34.954Z,27.70
2018-10-12T02:00:10.192Z,29.48
2018-10-12T02:02:45.664Z,26.02
2018-10-12T02:05:21.080Z,39.18
2018-10-12T02:07:56.628Z,25.27
2018-10-12T02:10:31.944Z,25.02
2018-10-12T02:13:07.384Z,26.40
2018-10-12T02:15:42.845Z,27.40
2018-10-12T02:18:18.184Z,27.75
2018-10-12T02:20:53.505Z,32.53
2018-10-12T02:23:28.805Z,28.00
2018-10-12T02:26:04.195Z,29.70
2018-10-12T02:28:39.754Z,23.95
2018-10-12T02:31:15.314Z,26.48
2018-10-12T02:33:50.884Z,27.30
2018-10-12T02:36:26.252Z,22.70
2018-10-12T02:39:01.827Z,25.25
2018-10-12T02:41:37.295Z,25.00
2018-10-12T02:44:13.098Z,25.90
2018-10-12T02:46:48.576Z,23.38
2018-10-12T02:49:23.991Z,23.92
2018-10-12T02:51:59.332Z,28.23
2018-10-12T02:54:34.795Z,24.55
2018-10-12T02:57:10.361Z,25.77
2018-10-12T02:59:45.866Z,27.20
2018-10-12T03:02:21.341Z,25.37
2018-10-12T03:04:56.790Z,25.23
2018-10-12T03:07:32.211Z,25.77
2018-10-12T03:10:07.474Z,23.20
2018-10-12T03:12:42.791Z,26.15
2018-10-12T03:15:18.002Z,24.47
2018-10-12T03:17:53.581Z,24.90
2018-10-12T03:20:28.892Z,26.37
2018-10-12T03:23:04.299Z,24.95
2018-10-12T03:25:39.880Z,25.20
2018-10-12T03:28:22.614Z,22.87
2018-10-12T03:30:58.735Z,25.70
2018-10-12T03:33:34.633Z,22.82
2018-10-12T03:36:10.136Z,25.45
2018-10-12T03:38:45.669Z,24.25
2018-10-12T03:41:21.414Z,27.73
2018-10-12T03:43:56.956Z,23.00
2018-10-12T03:46:32.685Z,24.35
2018-10-12T03:49:08.112Z,28.87
2018-10-12T03:51:43.498Z,23.25
2018-10-12T03:54:18.748Z,30.37
2018-10-12T03:56:54.299Z,25.57
2018-10-12T03:59:29.821Z,23.73
2018-10-12T04:02:05.563Z,25.00
2018-10-12T04:04:40.893Z,24.37
2018-10-12T04:07:16.554Z,29.95
2018-10-12T04:09:51.804Z,25.90
2018-10-12T04:12:27.128Z,24.75
2018-10-12T04:15:02.592Z,24.00
2018-10-12T04:17:37.795Z,24.70
2018-10-12T04:20:13.181Z,24.12
2018-10-12T04:22:48.606Z,25.50
2018-10-12T04:25:24.043Z,22.80
2018-10-12T04:27:59.471Z,25.43
2018-10-12T04:30:35.157Z,24.70
2018-10-12T04:33:10.486Z,23.35
2018-10-12T04:35:46.016Z,23.85
2018-10-12T04:38:21.598Z,22.80
2018-10-12T04:41:36.426Z,24.43
2018-10-12T04:44:12.117Z,27.93
2018-10-12T04:46:47.758Z,25.92
2018-10-12T04:49:23.302Z,36.70
2018-10-12T04:51:59.749Z,22.77
2018-10-12T04:54:35.237Z,23.87
2018-10-12T04:57:10.746Z,22.00
2018-10-12T04:59:46.176Z,26.00
2018-10-12T05:02:21.587Z,25.32
2018-10-12T05:04:56.942Z,24.25
2018-10-12T05:07:32.523Z,24.82
2018-10-12T05:10:08.155Z,23.85
2018-10-12T05:12:43.414Z,25.45
2018-10-12T05:15:18.748Z,25.88
2018-10-12T05:17:54.237Z,25.20
2018-10-12T05:20:29.775Z,25.25
2018-10-12T05:23:05.299Z,22.55
2018-10-12T05:25:40.584Z,25.12
2018-10-12T05:28:16.075Z,27.85
2018-10-12T05:30:51.464Z,23.90
2018-10-12T05:33:26.805Z,25.00
2018-10-12T05:36:02.456Z,23.75
2018-10-12T05:38:37.976Z,23.38
2018-10-12T05:41:13.358Z,22.52
2018-10-12T05:43:48.913Z,22.07
2018-10-12T05:46:24.207Z,23.90
2018-10-12T05:49:10.599Z,25.68
2018-10-12T05:51:46.133Z,23.70
2018-10-12T05:54:21.635Z,22.58
2018-10-12T05:56:57.144Z,22.17
2018-10-12T05:59:32.774Z,24.37
2018-10-12T06:02:08.172Z,24.27
2018-10-12T06:04:43.483Z,26.73
2018-10-12T06:07:18.782Z,24.20
2018-10-12T06:09:54.307Z,26.70
2018-10-12T06:12:29.592Z,26.15
2018-10-12T06:15:05.246Z,22.98
2018-10-12T06:17:40.785Z,23.38
2018-10-12T06:20:16.332Z,22.22
2018-10-12T06:22:51.692Z,26.52
2018-10-12T06:25:27.277Z,29.77
2018-10-12T06:28:02.885Z,24.50
2018-10-12T06:30:38.304Z,25.08
2018-10-12T06:33:13.781Z,24.07
2018-10-12T06:35:49.254Z,24.65
2018-10-12T06:38:24.812Z,26.17
2018-10-12T06:41:00.418Z,24.75
2018-10-12T06:43:35.539Z,28.05
2018-10-12T06:46:10.847Z,24.05
2018-10-12T06:48:46.305Z,23.85
2018-10-12T06:51:21.755Z,24.15
2018-10-12T06:53:57.427Z,27.80
2018-10-12T06:56:33.217Z,22.98
2018-10-12T06:59:09.481Z,24.37
2018-10-12T07:01:44.703Z,25.10
2018-10-12T07:04:20.886Z,23.73
2018-10-12T07:06:56.362Z,24.25
2018-10-12T07:09:31.771Z,23.83
2018-10-12T07:12:07.135Z,21.82
2018-10-12T07:14:42.721Z,25.80
2018-10-12T07:17:18.096Z,23.35
2018-10-12T07:19:53.438Z,22.77
2018-10-12T07:22:28.901Z,22.80
2018-10-12T07:25:04.474Z,25.05
2018-10-12T07:27:40.045Z,22.93
2018-10-12T07:30:15.722Z,24.20
2018-10-12T07:32:51.162Z,26.12
2018-10-12T07:35:26.826Z,22.70
2018-10-12T07:38:02.324Z,23.42
2018-10-12T07:40:37.764Z,20.72
2018-10-12T07:43:13.231Z,23.52
2018-10-12T07:45:48.834Z,20.20
2018-10-12T07:48:24.337Z,20.20
2018-10-12T07:50:59.771Z,19.67
2018-10-12T07:53:35.064Z,19.85
2018-10-12T07:56:10.508Z,20.70
2018-10-12T07:58:46.028Z,18.98
2018-10-12T08:01:21.445Z,18.02
2018-10-12T08:03:56.929Z,17.10
2018-10-12T08:06:32.627Z,19.92
2018-10-12T08:09:08.793Z,17.48
2018-10-12T08:11:44.184Z,19.45
2018-10-12T08:14:19.440Z,17.73
2018-10-12T08:16:54.685Z,19.37
2018-10-12T08:19:30.411Z,20.12
2018-10-12T08:22:05.966Z,20.27
2018-10-12T08:24:41.476Z,18.37
2018-10-12T08:27:16.621Z,21.50
2018-10-12T08:29:52.160Z,20.10
2018-10-12T08:32:27.741Z,20.30
2018-10-12T08:35:03.078Z,20.60
2018-10-12T08:37:38.151Z,19.85
2018-10-12T08:40:13.541Z,18.67
2018-10-12T08:42:49.091Z,18.50
2018-10-12T08:45:24.704Z,18.27
2018-10-12T08:48:00.031Z,19.77
2018-10-12T08:50:35.541Z,17.97
2018-10-12T08:53:11.065Z,20.93
2018-10-12T08:55:46.792Z,18.50
2018-10-12T08:58:22.382Z,18.43
2018-10-12T09:00:57.595Z,19.60
2018-10-12T09:03:32.967Z,18.40
2018-10-12T09:06:08.513Z,16.57
2018-10-12T09:08:44.080Z,17.97
2018-10-12T09:11:19.501Z,16.23
2018-10-12T09:13:54.952Z,14.60
2018-10-12T09:16:30.142Z,17.03
2018-10-12T09:19:06.044Z,16.73
2018-10-12T09:21:41.381Z,15.73
2018-10-12T09:24:16.906Z,18.07
2018-10-12T09:26:52.439Z,14.93
2018-10-12T09:29:28.005Z,15.93
2018-10-12T09:32:03.426Z,16.67
2018-10-12T09:34:38.971Z,16.33
2018-10-12T09:37:14.540Z,16.60
2018-10-12T09:39:49.898Z,17.43
2018-10-12T09:42:25.488Z,16.43
2018-10-12T09:45:01.161Z,17.80
2018-10-12T09:47:36.710Z,17.50
2018-10-12T09:50:12.204Z,15.67
2018-10-12T09:52:47.582Z,21.03
2018-10-12T09:55:22.944Z,16.03
2018-10-12T09:57:58.524Z,14.70
2018-10-12T10:00:39.083Z,14.40
2018-10-12T10:03:19.732Z,14.23
2018-10-12T10:05:55.090Z,16.97
2018-10-12T10:08:30.620Z,13.87
2018-10-12T10:11:05.958Z,14.23
2018-10-12T10:13:41.407Z,15.20
2018-10-12T10:16:16.685Z,12.77
2018-10-12T10:18:52.071Z,13.53
2018-10-12T10:21:27.436Z,12.47
2018-10-12T10:24:02.964Z,14.07
2018-10-12T10:26:38.492Z,12.57
2018-10-12T10:29:13.969Z,13.87
2018-10-12T10:31:49.465Z,14.27
2018-10-12T10:34:24.943Z,16.77
2018-10-12T10:37:00.242Z,12.03
2018-10-12T10:39:35.734Z,10.60
2018-10-12T10:42:11.164Z,10.17
2018-10-12T10:44:46.521Z,9.83
2018-10-12T10:47:21.775Z,10.80
2018-10-12T10:49:57.218Z,10.00
2018-10-12T10:52:32.598Z,10.07
2018-10-12T10:55:08.003Z,8.20
2018-10-12T10:57:43.323Z,8.23
2018-10-12T11:00:18.634Z,10.70
2018-10-12T11:02:53.897Z,8.43
2018-10-12T11:05:29.572Z,8.70
2018-10-12T11:08:05.031Z,9.80
2018-10-12T11:10:40.545Z,8.93
2018-10-12T11:13:16.050Z,9.30
2018-10-12T11:15:51.545Z,8.53
2018-10-12T11:18:26.862Z,8.07
2018-10-12T11:21:02.324Z,8.83
2018-10-12T11:23:37.684Z,9.20
2018-10-12T11:26:12.880Z,8.23
2018-10-12T11:28:48.326Z,9.50
2018-10-12T11:31:23.715Z,7.00
2018-10-12T11:33:59.340Z,7.83
2018-10-12T11:36:34.681Z,9.47
2018-10-12T11:39:13.503Z,9.40
2018-10-12T11:41:49.036Z,11.30
2018-10-12T11:44:24.713Z,9.93
2018-10-12T11:47:00.048Z,9.10
2018-10-12T11:49:35.532Z,7.70
2018-10-12T11:52:12.172Z,8.93
2018-10-12T11:54:48.180Z,10.73
2018-10-12T11:57:23.466Z,24.97
2018-10-12T11:59:59.133Z,9.77
2018-10-12T12:02:34.945Z,9.33
2018-10-12T12:05:10.581Z,8.73
2018-10-12T12:07:46.457Z,7.90
2018-10-12T12:10:22.005Z,7.83
2018-10-12T12:12:57.303Z,8.57
2018-10-12T12:15:32.814Z,8.50
2018-10-12T12:18:08.311Z,7.63
2018-10-12T12:20:43.660Z,7.03
2018-10-12T12:23:19.045Z,8.03
2018-10-12T12:25:54.513Z,6.10
2018-10-12T12:28:29.905Z,6.50
2018-10-12T12:31:05.286Z,5.60
2018-10-12T12:33:40.551Z,5.73
2018-10-12T12:36:16.041Z,6.20
2018-10-12T12:38:51.482Z,5.63
2018-10-12T12:41:27.143Z,5.40
2018-10-12T12:44:02.704Z,9.13
2018-10-12T12:46:38.044Z,5.83
2018-10-12T12:49:13.878Z,5.80
2018-10-12T12:51:49.124Z,6.17
2018-10-12T12:54:24.934Z,5.20
2018-10-12T12:57:00.523Z,5.53
2018-10-12T12:59:35.981Z,6.70
2018-10-12T13:02:11.325Z,5.50
2018-10-12T13:04:46.835Z,6.40
2018-10-12T13:07:22.567Z,5.90
2018-10-12T13:09:58.386Z,6.17
2018-10-12T13:12:33.884Z,5.13
2018-10-12T13:15:09.375Z,4.87
2018-10-12T13:17:45.123Z,5.20
2018-10-12T13:20:20.904Z,9.30
2018-10-12T13:22:56.398Z,7.60
2018-10-12T13:25:31.756Z,7.80
2018-10-12T13:28:07.392Z,6.10
2018-10-12T13:30:42.844Z,5.00
2018-10-12T13:33:18.093Z,5.30
2018-10-12T13:35:53.521Z,5.37
2018-10-12T13:38:28.841Z,5.70
2018-10-12T13:41:04.124Z,5.17
2018-10-12T13:43:39.524Z,4.37
2018-10-12T13:46:14.944Z,6.10
2018-10-12T13:48:50.303Z,4.83
2018-10-12T13:51:25.680Z,5.43
2018-10-12T13:54:01.286Z,7.97
2018-10-12T13:56:36.875Z,6.10
2018-10-12T13:59:12.766Z,5.00
2018-10-12T14:01:48.273Z,7.47
2018-10-12T14:04:23.830Z,6.30
2018-10-12T14:06:59.748Z,5.10
2018-10-12T14:09:35.123Z,4.23
2018-10-12T14:12:10.546Z,4.90
2018-10-12T14:14:45.925Z,5.67
2018-10-12T14:17:21.615Z,5.83
2018-10-12T14:19:57.477Z,6.47
2018-10-12T14:22:33.081Z,6.53
2018-10-12T14:25:08.713Z,6.40
2018-10-12T14:27:45.256Z,5.47
2018-10-12T14:30:20.812Z,5.00
2018-10-12T14:33:00.258Z,5.50
2018-10-12T14:35:37.258Z,7.13
2018-10-12T14:38:12.635Z,9.83
2018-10-12T14:40:48.435Z,5.63
2018-10-12T14:43:24.121Z,5.10
2018-10-12T14:45:59.591Z,6.33
2018-10-12T14:48:35.481Z,6.00
2018-10-12T14:51:11.384Z,5.50
2018-10-12T14:53:47.145Z,6.63
2018-10-12T14:56:22.641Z,9.90
2018-10-12T14:58:59.378Z,11.00
2018-10-12T15:01:36.398Z,6.23
2018-10-12T15:04:12.511Z,7.30
2018-10-12T15:06:47.986Z,5.60
2018-10-12T15:09:24.269Z,5.10
2018-10-12T15:11:59.853Z,5.73
2018-10-12T15:14:47.526Z,7.07
2018-10-12T15:17:24.454Z,6.10
2018-10-12T15:20:00.124Z,5.80
2018-10-12T15:22:38.166Z,6.53
2018-10-12T15:25:14.565Z,5.30
2018-10-12T15:27:50.216Z,7.70
2018-10-12T15:30:25.804Z,7.50
2018-10-12T15:33:02.210Z,7.00
2018-10-12T15:35:37.973Z,7.57
2018-10-12T15:38:13.661Z,5.80
2018-10-12T15:40:49.311Z,6.37
2018-10-12T15:43:25.114Z,4.90
2018-10-12T15:46:00.604Z,6.20
2018-10-12T15:48:35.818Z,8.70
2018-10-12T15:51:11.715Z,11.13
2018-10-12T15:53:47.581Z,6.87
2018-10-12T15:56:23.161Z,6.63
2018-10-12T15:58:58.381Z,7.97
2018-10-12T16:01:33.876Z,6.27
2018-10-12T16:04:09.784Z,8.37
2018-10-12T16:06:45.314Z,7.33
2018-10-12T16:09:20.764Z,9.57
2018-10-12T16:11:56.287Z,9.70
2018-10-12T16:14:31.879Z,11.60
2018-10-12T16:17:07.480Z,9.30
2018-10-12T16:19:42.756Z,12.87
2018-10-12T16:22:24.240Z,8.10
2018-10-12T16:25:10.716Z,7.93
2018-10-12T16:27:46.036Z,8.30
2018-10-12T16:30:21.697Z,7.67
2018-10-12T16:32:57.173Z,8.00
2018-10-12T16:35:32.595Z,9.03
2018-10-12T16:38:08.184Z,7.83
2018-10-12T16:40:44.040Z,6.93
2018-10-12T16:43:19.503Z,6.13
2018-10-12T16:45:54.744Z,6.27
2018-10-12T16:48:30.141Z,8.43
2018-10-12T16:51:05.594Z,7.57
2018-10-12T16:53:41.173Z,6.87
2018-10-12T16:56:16.581Z,9.93
2018-10-12T16:58:51.856Z,7.07
2018-10-12T17:01:27.233Z,8.27
2018-10-12T17:04:02.330Z,8.93
2018-10-12T17:06:37.855Z,14.80
2018-10-12T17:09:13.408Z,14.67
2018-10-12T17:11:49.026Z,15.83
2018-10-12T17:14:24.523Z,17.13
2018-10-12T17:17:00.122Z,10.27
2018-10-12T17:19:35.805Z,10.30
2018-10-12T17:22:11.162Z,10.43
2018-10-12T17:24:46.602Z,11.10
2018-10-12T17:27:22.212Z,12.13
2018-10-12T17:29:57.561Z,9.43
2018-10-12T17:32:33.003Z,9.77
2018-10-12T17:35:08.296Z,12.30
2018-10-12T17:37:43.945Z,10.63
2018-10-12T17:40:19.592Z,9.80
2018-10-12T17:42:55.057Z,11.20
2018-10-12T17:45:30.686Z,14.30
2018-10-12T17:48:06.145Z,7.50
2018-10-12T17:50:41.765Z,8.50
2018-10-12T17:53:17.111Z,8.17
2018-10-12T17:55:52.682Z,7.10
2018-10-12T17:58:28.038Z,7.90
2018-10-12T18:01:03.626Z,8.93
2018-10-12T18:03:39.215Z,9.50
2018-10-12T18:06:14.614Z,8.68
2018-10-12T18:08:50.052Z,10.57
2018-10-12T18:11:25.655Z,10.40
2018-10-12T18:14:04.026Z,12.75
2018-10-12T18:16:39.524Z,12.53
2018-10-12T18:19:14.951Z,13.83
2018-10-12T18:21:50.345Z,9.70
2018-10-12T18:24:25.745Z,12.70
2018-10-12T18:27:01.254Z,12.50
2018-10-12T18:29:36.722Z,16.70
2018-10-12T18:32:12.032Z,15.30
2018-10-12T18:34:50.237Z,13.35
2018-10-12T18:37:25.512Z,10.03
2018-10-12T18:40:01.142Z,14.98
2018-10-12T18:42:36.597Z,10.15
2018-10-12T18:45:12.236Z,9.30
2018-10-12T18:47:48.037Z,10.13
2018-10-12T18:50:23.458Z,8.83
2018-10-12T18:52:58.871Z,8.83
2018-10-12T18:55:34.154Z,10.13
2018-10-12T18:58:09.631Z,10.72
2018-10-12T19:00:45.065Z,12.60
2018-10-12T19:03:20.486Z,11.57
2018-10-12T19:05:55.881Z,10.40
2018-10-12T19:08:31.267Z,12.03
2018-10-12T19:11:06.691Z,9.30
2018-10-12T19:13:41.948Z,9.67
2018-10-12T19:16:17.404Z,11.73
2018-10-12T19:18:53.013Z,8.90
2018-10-12T19:21:28.914Z,14.83
2018-10-12T19:24:04.392Z,8.90
2018-10-12T19:26:39.962Z,12.68
2018-10-12T19:29:15.284Z,9.10
2018-10-12T19:32:54.167Z,8.73
2018-10-12T19:35:29.804Z,10.10
2018-10-12T19:38:05.435Z,9.68
2018-10-12T19:40:41.014Z,9.83
2018-10-12T19:43:16.502Z,9.95
2018-10-12T19:45:51.794Z,9.48
2018-10-12T19:48:27.212Z,13.00
2018-10-12T19:51:02.896Z,19.23
2018-10-12T19:53:38.345Z,21.10
2018-10-12T19:56:13.462Z,27.37
2018-10-12T19:58:48.805Z,26.33
2018-10-12T20:01:23.994Z,23.35
2018-10-12T20:03:59.242Z,21.75
2018-10-12T20:06:34.646Z,22.77
2018-10-12T20:09:11.544Z,18.45
2018-10-12T20:11:46.923Z,14.78
2018-10-12T20:14:22.298Z,12.30
2018-10-12T20:16:57.511Z,11.08
2018-10-12T20:19:32.839Z,11.00
2018-10-12T20:22:10.106Z,12.40
2018-10-12T20:24:45.445Z,18.80
2018-10-12T20:27:20.812Z,18.37
2018-10-12T20:29:56.037Z,19.43
2018-10-12T20:32:31.449Z,15.60
2018-10-12T20:35:06.951Z,15.38
2018-10-12T20:37:42.252Z,11.57
2018-10-12T20:40:17.414Z,12.25
2018-10-12T20:42:52.836Z,12.95
2018-10-12T20:45:28.096Z,10.72
2018-10-12T20:48:03.685Z,10.80
2018-10-12T20:50:39.239Z,11.15
2018-10-12T20:53:14.844Z,9.68
2018-10-12T20:55:50.420Z,11.50
2018-10-12T20:58:26.081Z,10.25
2018-10-12T21:01:01.622Z,13.25
2018-10-12T21:03:37.071Z,12.13
2018-10-12T21:06:12.626Z,11.28
2018-10-12T21:08:47.905Z,10.43
2018-10-12T21:11:23.384Z,10.30
2018-10-12T21:13:58.692Z,9.20
2018-10-12T21:16:34.843Z,13.00
2018-10-12T21:19:10.714Z,11.60
2018-10-12T21:21:46.004Z,10.65
2018-10-12T21:24:21.454Z,9.30
2018-10-12T21:26:56.635Z,8.95
2018-10-12T21:29:32.436Z,11.50
2018-10-12T21:32:08.035Z,9.78
2018-10-12T21:34:43.734Z,10.55
2018-10-12T21:37:19.625Z,9.75
2018-10-12T21:39:54.914Z,11.60
2018-10-12T21:42:30.605Z,9.60
2018-10-12T21:45:06.143Z,19.17
2018-10-12T21:47:41.431Z,9.43
2018-10-12T21:50:16.866Z,9.87
2018-10-12T21:52:52.422Z,10.03
2018-10-12T21:55:28.130Z,9.85
2018-10-12T21:58:03.731Z,9.10
2018-10-12T22:00:39.074Z,11.23
2018-10-12T22:03:14.934Z,9.70
2018-10-12T22:05:50.334Z,10.58
2018-10-12T22:08:30.782Z,13.33
2018-10-12T22:11:06.889Z,11.43
2018-10-12T22:13:42.302Z,9.33
2018-10-12T22:16:17.657Z,12.53
2018-10-12T22:18:53.181Z,8.90
2018-10-12T22:21:28.835Z,10.17
2018-10-12T22:24:04.361Z,9.35
2018-10-12T22:26:39.664Z,11.80
2018-10-12T22:29:14.897Z,10.50
2018-10-12T22:31:50.464Z,10.60
2018-10-12T22:34:26.059Z,10.47
2018-10-12T22:37:01.455Z,8.67
2018-10-12T22:39:37.076Z,11.90
2018-10-12T22:42:13.955Z,10.40
2018-10-12T22:44:49.295Z,10.80
2018-10-12T22:47:24.641Z,7.93
2018-10-12T22:49:59.842Z,9.83
2018-10-12T22:52:35.132Z,13.03
2018-10-12T22:55:10.152Z,12.57
2018-10-12T22:57:45.621Z,10.90
2018-10-12T23:00:21.177Z,10.20
2018-10-12T23:02:56.572Z,10.10
2018-10-12T23:05:32.063Z,8.93
2018-10-12T23:08:07.939Z,12.27
2018-10-12T23:10:44.354Z,10.50
2018-10-12T23:13:19.722Z,10.17
2018-10-12T23:15:55.105Z,7.10
2018-10-12T23:18:30.426Z,10.40
2018-10-12T23:21:05.891Z,9.57
2018-10-12T23:23:41.581Z,9.07
2018-10-12T23:26:17.220Z,9.43
2018-10-12T23:28:52.764Z,9.20
2018-10-12T23:31:28.391Z,9.87
2018-10-12T23:34:06.989Z,7.70
2018-10-12T23:36:42.484Z,9.13
2018-10-12T23:39:17.711Z,9.70
2018-10-12T23:41:53.122Z,8.80
2018-10-12T23:44:28.533Z,8.93
2018-10-12T23:47:03.932Z,9.87
2018-10-12T23:49:38.994Z,8.20
2018-10-12T23:52:14.095Z,8.90
2018-10-12T23:54:49.452Z,10.40
2018-10-12T23:57:25.115Z,10.00
